createdAt,value
2019-05-17T00:02:08.127Z,97414.76
2019-05-17T00:04:37.538Z,97414.76
2019-05-17T00:07:07.086Z,97411.03
2019-05-17T00:09:37.388Z,97407.00
2019-05-17T00:12:07.564Z,97407.23
2019-05-17T00:14:37.008Z,97407.23
2019-05-17T00:17:07.132Z,97396.88
2019-05-17T00:19:37.054Z,97394.18
2019-05-17T00:22:07.351Z,97394.18
2019-05-17T00:24:37.112Z,97386.70
2019-05-17T00:27:06.897Z,97386.70
2019-05-17T00:29:37.198Z,97378.28
2019-05-17T00:32:06.714Z,97369.58
2019-05-17T00:34:37.733Z,97369.58
2019-05-17T00:37:07.376Z,97369.03
2019-05-17T00:39:36.862Z,97348.33
2019-05-17T00:42:07.036Z,97348.33
2019-05-17T00:44:36.811Z,97363.42
2019-05-17T00:47:06.686Z,97357.86
2019-05-17T00:49:37.166Z,97356.68
2019-05-17T00:52:07.211Z,97356.68
2019-05-17T00:54:36.813Z,97344.84
2019-05-17T00:57:07.504Z,97355.73
2019-05-17T00:59:37.089Z,97355.73
2019-05-17T01:02:07.110Z,97349.36
2019-05-17T01:04:37.045Z,97344.38
2019-05-17T01:07:07.091Z,97344.38
2019-05-17T01:09:36.814Z,97341.98
2019-05-17T01:12:07.083Z,97343.88
2019-05-17T01:14:37.287Z,97341.84
2019-05-17T01:17:07.305Z,97344.66
2019-05-17T01:19:36.868Z,97334.48
2019-05-17T01:22:07.545Z,97334.48
2019-05-17T01:24:37.117Z,97326.97
2019-05-17T01:27:06.731Z,97326.97
2019-05-17T01:29:36.475Z,97334.30
2019-05-17T01:32:06.854Z,97329.50
2019-05-17T01:34:37.672Z,97329.50
2019-05-17T01:37:07.918Z,97324.50
2019-05-17T01:39:37.691Z,97326.63
2019-05-17T01:42:07.211Z,97316.38
2019-05-17T01:44:36.862Z,97325.47
2019-05-17T01:47:07.405Z,97320.95
2019-05-17T01:49:36.861Z,97320.95
2019-05-17T01:52:07.477Z,97329.81
2019-05-17T01:54:37.025Z,97329.50
2019-05-17T01:57:07.309Z,97335.03
2019-05-17T01:59:37.372Z,97335.03
2019-05-17T02:02:10.392Z,97332.89
2019-05-17T02:04:39.764Z,97338.56
2019-05-17T02:07:09.138Z,97338.56
2019-05-17T02:09:41.699Z,97336.19
2019-05-17T02:12:09.752Z,97329.91
2019-05-17T02:14:39.146Z,97329.91
2019-05-17T02:17:08.509Z,97323.63
2019-05-17T02:19:37.945Z,97323.23
2019-05-17T02:22:07.585Z,97325.34
2019-05-17T02:24:37.203Z,97322.03
2019-05-17T02:27:06.845Z,97322.03
2019-05-17T02:29:36.248Z,97318.77
2019-05-17T02:32:05.873Z,97320.00
2019-05-17T02:34:35.392Z,97320.00
2019-05-17T02:37:04.777Z,97312.25
2019-05-17T02:39:51.958Z,97312.25
2019-05-17T02:42:05.485Z,97313.59
2019-05-17T02:44:34.866Z,97320.39
2019-05-17T02:47:04.305Z,97317.75
2019-05-17T02:49:33.682Z,97317.75
2019-05-17T02:52:03.525Z,97317.81
2019-05-17T02:54:33.099Z,97313.28
2019-05-17T02:57:05.684Z,97313.28
2019-05-17T02:59:35.058Z,97325.53
2019-05-17T03:02:04.562Z,97318.73
2019-05-17T03:04:33.933Z,97318.73
2019-05-17T03:07:04.028Z,97324.71
2019-05-17T03:09:33.969Z,97328.77
2019-05-17T03:12:03.973Z,97319.91
2019-05-17T03:14:33.536Z,97317.59
2019-05-17T03:17:03.563Z,97317.59
2019-05-17T03:19:33.296Z,97317.66
2019-05-17T03:22:07.181Z,97322.18
2019-05-17T03:24:33.794Z,97316.81
2019-05-17T03:27:03.393Z,97321.94
2019-05-17T03:29:33.618Z,97320.42
2019-05-17T03:32:08.470Z,97322.36
2019-05-17T03:34:37.010Z,97321.52
2019-05-17T03:37:07.587Z,97326.33
2019-05-17T03:39:37.430Z,97320.84
2019-05-17T03:42:06.811Z,97325.72
2019-05-17T03:44:36.257Z,97333.77
2019-05-17T03:47:06.106Z,97327.91
2019-05-17T03:49:39.133Z,97330.31
2019-05-17T03:52:06.627Z,97328.65
2019-05-17T03:54:36.019Z,97325.22
2019-05-17T03:57:05.436Z,97324.38
2019-05-17T03:59:34.806Z,97324.88
2019-05-17T04:02:04.302Z,97328.65
2019-05-17T04:04:33.753Z,97320.25
2019-05-17T04:07:03.640Z,97329.74
2019-05-17T04:09:37.396Z,97326.51
2019-05-17T04:12:04.351Z,97327.17
2019-05-17T04:14:33.790Z,97326.96
2019-05-17T04:17:03.405Z,97324.20
2019-05-17T04:19:33.676Z,97321.92
2019-05-17T04:22:04.009Z,97324.47
2019-05-17T04:24:33.538Z,97309.02
2019-05-17T04:27:03.785Z,97312.30
2019-05-17T04:29:33.626Z,97312.30
2019-05-17T04:32:03.990Z,97322.02
2019-05-17T04:34:34.014Z,97330.02
2019-05-17T04:37:04.551Z,97314.53
2019-05-17T04:39:34.034Z,97314.53
2019-05-17T04:42:04.183Z,97312.00
2019-05-17T04:44:33.920Z,97332.70
2019-05-17T04:47:04.800Z,97322.69
2019-05-17T04:49:34.208Z,97316.49
2019-05-17T04:52:03.909Z,97320.00
2019-05-17T04:54:33.675Z,97315.08
2019-05-17T04:57:03.246Z,97320.25
2019-05-17T04:59:33.825Z,97313.98
2019-05-17T05:02:03.897Z,97324.03
2019-05-17T05:04:37.802Z,97319.67
2019-05-17T05:07:04.591Z,97319.67
2019-05-17T05:09:33.985Z,97313.84
2019-05-17T05:12:06.141Z,97312.25
2019-05-17T05:14:34.548Z,97314.30
2019-05-17T05:17:04.049Z,97314.30
2019-05-17T05:19:33.561Z,97315.09
2019-05-17T05:22:04.483Z,97318.17
2019-05-17T05:24:34.605Z,97311.47
2019-05-17T05:27:06.775Z,97311.47
2019-05-17T05:29:36.167Z,97315.08
2019-05-17T05:32:05.712Z,97309.03
2019-05-17T05:34:35.168Z,97306.62
2019-05-17T05:37:04.548Z,97306.62
2019-05-17T05:39:34.170Z,97312.53
2019-05-17T05:42:07.926Z,97311.88
2019-05-17T05:44:34.651Z,97296.39
2019-05-17T05:47:06.786Z,97306.28
2019-05-17T05:49:36.190Z,97306.20
2019-05-17T05:52:05.567Z,97306.20
2019-05-17T05:54:34.992Z,97301.51
2019-05-17T05:57:04.369Z,97304.02
2019-05-17T05:59:35.480Z,97306.08
2019-05-17T06:02:04.997Z,97305.64
2019-05-17T06:04:34.391Z,97314.45
2019-05-17T06:07:03.790Z,97311.09
2019-05-17T06:09:33.433Z,97313.30
2019-05-17T06:12:03.496Z,97320.16
2019-05-17T06:14:32.923Z,97320.16
2019-05-17T06:17:03.195Z,97317.70
2019-05-17T06:19:32.628Z,97317.70
2019-05-17T06:22:02.802Z,97319.89
2019-05-17T06:24:32.385Z,97316.36
2019-05-17T06:27:02.108Z,97317.51
2019-05-17T06:29:32.754Z,97315.52
2019-05-17T06:32:02.726Z,97310.09
2019-05-17T06:34:32.890Z,97314.80
2019-05-17T06:37:03.457Z,97317.82
2019-05-17T06:39:33.060Z,97312.92
2019-05-17T06:42:02.841Z,97310.47
2019-05-17T06:44:32.762Z,97312.07
2019-05-17T06:47:03.658Z,97305.22
2019-05-17T06:49:33.117Z,97310.00
2019-05-17T06:52:02.657Z,97313.09
2019-05-17T06:54:33.132Z,97305.72
2019-05-17T06:57:04.012Z,97306.92
2019-05-17T06:59:33.504Z,97301.43
2019-05-17T07:02:02.910Z,97297.23
2019-05-17T07:04:32.433Z,97302.94
2019-05-17T07:07:20.695Z,97294.09
2019-05-17T07:09:50.250Z,97293.73
2019-05-17T07:12:20.192Z,97293.21
2019-05-17T07:14:50.739Z,97283.42
2019-05-17T07:17:20.254Z,97278.86
2019-05-17T07:19:50.730Z,97281.92
2019-05-17T07:22:21.190Z,97280.73
2019-05-17T07:24:50.959Z,97270.14
2019-05-17T07:27:20.371Z,97267.38
2019-05-17T07:29:49.849Z,97263.63
2019-05-17T07:32:19.491Z,97256.00
2019-05-17T07:34:50.790Z,97261.08
2019-05-17T07:37:20.113Z,97260.34
2019-05-17T07:40:00.916Z,97253.86
2019-05-17T07:42:20.694Z,97251.48
2019-05-17T07:44:50.235Z,97247.51
2019-05-17T07:47:20.310Z,97242.73
2019-05-17T07:49:49.874Z,97249.16
2019-05-17T07:52:20.592Z,97245.24
2019-05-17T07:54:50.887Z,97242.91
2019-05-17T07:57:20.786Z,97236.06
2019-05-17T07:59:50.796Z,97236.38
2019-05-17T08:02:20.466Z,97228.37
2019-05-17T08:04:50.245Z,97232.88
2019-05-17T08:07:19.817Z,97232.31
2019-05-17T08:09:50.649Z,97223.59
2019-05-17T08:12:20.127Z,97218.21
2019-05-17T08:14:50.244Z,97216.50
2019-05-17T08:17:20.073Z,97212.80
2019-05-17T08:19:49.907Z,97214.38
2019-05-17T08:22:20.237Z,97208.41
2019-05-17T08:24:49.741Z,97205.56
2019-05-17T08:27:20.078Z,97207.72
2019-05-17T08:29:50.904Z,97206.66
2019-05-17T08:32:20.911Z,97204.89
2019-05-17T08:34:51.904Z,97198.08
2019-05-17T08:37:21.445Z,97198.52
2019-05-17T08:39:50.795Z,97194.59
2019-05-17T08:42:20.538Z,97197.05
2019-05-17T08:44:50.009Z,97196.16
2019-05-17T08:47:20.957Z,97186.86
2019-05-17T08:49:50.542Z,97190.89
2019-05-17T08:52:20.154Z,97189.83
2019-05-17T08:54:50.047Z,97185.45
2019-05-17T08:57:20.447Z,97186.19
2019-05-17T08:59:49.993Z,97184.50
2019-05-17T09:02:19.860Z,97179.75
2019-05-17T09:04:49.878Z,97183.23
2019-05-17T09:07:20.372Z,97180.36
2019-05-17T09:09:50.364Z,97179.20
2019-05-17T09:12:20.616Z,97178.50
2019-05-17T09:14:50.286Z,97176.95
2019-05-17T09:17:19.648Z,97175.80
2019-05-17T09:19:50.962Z,97173.89
2019-05-17T09:22:20.142Z,97172.80
2019-05-17T09:24:50.005Z,97175.95
2019-05-17T09:27:19.905Z,97164.61
2019-05-17T09:29:49.813Z,97158.38
2019-05-17T09:32:20.112Z,97158.03
2019-05-17T09:34:50.048Z,97157.73
2019-05-17T09:37:22.443Z,97148.77
2019-05-17T09:39:50.902Z,97158.44
2019-05-17T09:42:20.931Z,97160.63
2019-05-17T09:44:50.576Z,97157.36
2019-05-17T09:47:20.650Z,97147.98
2019-05-17T09:49:50.309Z,97136.79
2019-05-17T09:52:20.226Z,97154.86
2019-05-17T09:54:50.468Z,97146.95
2019-05-17T09:57:20.498Z,97148.36
2019-05-17T09:59:49.986Z,97151.51
2019-05-17T10:02:20.358Z,97145.72
2019-05-17T10:04:50.395Z,97137.32
2019-05-17T10:07:20.706Z,97133.34
2019-05-17T10:09:50.898Z,97131.55
2019-05-17T10:12:20.453Z,97136.16
2019-05-17T10:14:49.965Z,97130.91
2019-05-17T10:17:21.166Z,97124.51
2019-05-17T10:19:50.999Z,97118.98
2019-05-17T10:22:20.741Z,97118.55
2019-05-17T10:24:50.151Z,97113.00
2019-05-17T10:27:20.111Z,97114.75
2019-05-17T10:29:50.150Z,97113.86
2019-05-17T10:32:20.573Z,97115.23
2019-05-17T10:34:50.203Z,97112.27
2019-05-17T10:37:20.304Z,97109.04
2019-05-17T10:39:50.359Z,97106.98
2019-05-17T10:42:20.910Z,97108.27
2019-05-17T10:44:51.329Z,97109.50
2019-05-17T10:47:21.620Z,97112.43
2019-05-17T10:49:51.188Z,97107.27
2019-05-17T10:52:20.817Z,97103.75
2019-05-17T10:54:50.388Z,97089.53
2019-05-17T10:57:19.826Z,97097.30
2019-05-17T10:59:49.942Z,97091.27
2019-05-17T11:02:19.817Z,97093.37
2019-05-17T11:04:50.523Z,97095.90
2019-05-17T11:07:20.273Z,97082.92
2019-05-17T11:09:50.788Z,97086.33
2019-05-17T11:12:20.875Z,97079.63
2019-05-17T11:14:56.096Z,97076.20
2019-05-17T11:17:21.490Z,97079.97
2019-05-17T11:19:50.870Z,97082.90
2019-05-17T11:22:20.408Z,97081.57
2019-05-17T11:24:49.815Z,97077.94
2019-05-17T11:27:19.165Z,97084.03
2019-05-17T11:29:48.549Z,97076.86
2019-05-17T11:32:18.090Z,97076.28
2019-05-17T11:34:47.617Z,97065.74
2019-05-17T11:37:17.019Z,97063.58
2019-05-17T11:39:46.534Z,97071.86
2019-05-17T11:42:15.989Z,97068.66
2019-05-17T11:44:45.347Z,97071.30
2019-05-17T11:47:14.739Z,97069.21
2019-05-17T11:49:44.134Z,97066.59
2019-05-17T11:52:13.705Z,97067.47
2019-05-17T11:54:43.161Z,97061.80
2019-05-17T11:57:12.602Z,97064.45
2019-05-17T11:59:41.954Z,97053.38
2019-05-17T12:02:11.554Z,97051.36
2019-05-17T12:04:40.959Z,97049.01
2019-05-17T12:07:10.656Z,97052.17
2019-05-17T12:09:40.177Z,97052.37
2019-05-17T12:12:09.726Z,97048.70
2019-05-17T12:14:39.113Z,97046.83
2019-05-17T12:17:08.611Z,97040.98
2019-05-17T12:19:38.444Z,97045.84
2019-05-17T12:22:07.805Z,97030.23
2019-05-17T12:24:37.206Z,97034.97
2019-05-17T12:27:06.582Z,97023.32
2019-05-17T12:29:35.982Z,97022.55
2019-05-17T12:32:06.027Z,97026.13
2019-05-17T12:34:35.598Z,97020.95
2019-05-17T12:37:07.340Z,97012.03
2019-05-17T12:39:36.726Z,97016.45
2019-05-17T12:42:06.217Z,96997.97
2019-05-17T12:44:37.283Z,96991.80
2019-05-17T12:47:06.921Z,96994.04
2019-05-17T12:49:36.283Z,96994.62
2019-05-17T12:52:05.785Z,96984.02
2019-05-17T12:54:35.168Z,96987.74
2019-05-17T12:57:05.202Z,96984.66
2019-05-17T12:59:34.601Z,96986.95
2019-05-17T13:02:04.045Z,96980.73
2019-05-17T13:04:33.410Z,96978.41
2019-05-17T13:07:02.803Z,96965.20
2019-05-17T13:09:32.176Z,96965.20
2019-05-17T13:12:01.569Z,96956.72
2019-05-17T13:14:32.506Z,96953.98
2019-05-17T13:17:01.906Z,96949.28
2019-05-17T13:19:31.280Z,96947.50
2019-05-17T13:22:00.689Z,96959.23
2019-05-17T13:24:30.048Z,96956.09
2019-05-17T13:26:59.549Z,96948.80
2019-05-17T13:29:28.945Z,96948.56
2019-05-17T13:31:58.419Z,96956.48
2019-05-17T13:34:27.825Z,96948.03
2019-05-17T13:36:57.262Z,96943.84
2019-05-17T13:39:26.680Z,96938.30
2019-05-17T13:41:56.046Z,96939.08
2019-05-17T13:44:25.546Z,96936.84
2019-05-17T13:46:54.940Z,96931.88
2019-05-17T13:49:24.333Z,96936.06
2019-05-17T13:51:53.702Z,96937.38
2019-05-17T13:54:23.103Z,96926.60
2019-05-17T13:56:52.469Z,96925.84
2019-05-17T13:59:21.869Z,96930.50
2019-05-17T14:01:51.240Z,96927.73
2019-05-17T14:04:20.607Z,96917.97
2019-05-17T14:06:50.033Z,96926.80
2019-05-17T14:09:19.393Z,96931.77
2019-05-17T14:11:48.831Z,96928.01
2019-05-17T14:14:18.253Z,96928.11
2019-05-17T14:16:47.630Z,96929.72
2019-05-17T14:19:16.990Z,96928.56
2019-05-17T14:21:46.572Z,96934.44
2019-05-17T14:24:15.945Z,96931.22
2019-05-17T14:26:45.340Z,96931.63
2019-05-17T14:29:14.822Z,96929.78
2019-05-17T14:31:44.282Z,96935.89
2019-05-17T14:34:13.742Z,96926.49
2019-05-17T14:36:43.181Z,96930.87
2019-05-17T14:39:12.580Z,96938.33
2019-05-17T14:41:42.020Z,96934.23
2019-05-17T14:44:11.427Z,96937.10
2019-05-17T14:46:40.820Z,96936.81
2019-05-17T14:49:10.214Z,96937.09
2019-05-17T14:51:39.571Z,96939.85
2019-05-17T14:54:08.964Z,96935.80
2019-05-17T14:56:38.325Z,96936.18
2019-05-17T14:59:07.728Z,96935.59
2019-05-17T15:01:37.197Z,96936.13
2019-05-17T15:04:06.598Z,96927.09
2019-05-17T15:06:35.972Z,96920.41
2019-05-17T15:09:06.685Z,96913.50
2019-05-17T15:11:36.080Z,96910.02
2019-05-17T15:14:05.962Z,96905.86
2019-05-17T15:16:35.408Z,96905.09
2019-05-17T15:19:04.873Z,96911.59
2019-05-17T15:21:34.255Z,96911.03
2019-05-17T15:24:03.637Z,96915.27
2019-05-17T15:26:35.668Z,96906.87
2019-05-17T15:29:04.381Z,96904.33
2019-05-17T15:31:33.827Z,96900.86
2019-05-17T15:34:03.218Z,96907.58
2019-05-17T15:36:32.660Z,96905.84
2019-05-17T15:39:02.193Z,96900.92
2019-05-17T15:41:31.590Z,96902.46
2019-05-17T15:44:01.072Z,96897.75
2019-05-17T15:46:30.474Z,96891.69
2019-05-17T15:48:59.845Z,96888.36
2019-05-17T15:51:29.214Z,96890.36
2019-05-17T15:53:58.707Z,96884.88
2019-05-17T15:56:28.095Z,96885.63
2019-05-17T15:58:57.486Z,96891.33
2019-05-17T16:01:26.868Z,96885.80
2019-05-17T16:03:56.261Z,96882.83
2019-05-17T16:06:25.632Z,96879.52
2019-05-17T16:08:55.033Z,96863.41
2019-05-17T16:11:24.500Z,96869.41
2019-05-17T16:13:53.999Z,96866.63
2019-05-17T16:16:23.462Z,96867.28
2019-05-17T16:18:52.882Z,96875.22
2019-05-17T16:21:22.359Z,96880.75
2019-05-17T16:23:53.408Z,96873.58
2019-05-17T16:26:22.864Z,96878.30
2019-05-17T16:28:52.227Z,96879.75
2019-05-17T16:31:21.615Z,96880.91
2019-05-17T16:33:51.149Z,96880.95
2019-05-17T16:36:20.638Z,96874.05
2019-05-17T16:38:50.061Z,96880.48
2019-05-17T16:41:19.509Z,96881.30
2019-05-17T16:43:48.883Z,96877.63
2019-05-17T16:46:18.270Z,96885.52
2019-05-17T16:48:47.664Z,96879.07
2019-05-17T16:51:17.101Z,96870.11
2019-05-17T16:53:46.547Z,96876.01
2019-05-17T16:56:15.933Z,96877.63
2019-05-17T16:58:45.317Z,96869.68
2019-05-17T17:01:14.703Z,96875.39
2019-05-17T17:03:44.885Z,96872.44
2019-05-17T17:06:14.360Z,96865.38
2019-05-17T17:08:44.309Z,96864.59
2019-05-17T17:11:13.794Z,96871.88
2019-05-17T17:13:43.208Z,96873.51
2019-05-17T17:16:12.568Z,96869.97
2019-05-17T17:18:41.965Z,96870.75
2019-05-17T17:21:11.601Z,96865.58
2019-05-17T17:23:41.111Z,96864.78
2019-05-17T17:26:10.483Z,96865.81
2019-05-17T17:28:39.971Z,96869.53
2019-05-17T17:31:13.798Z,96869.02
2019-05-17T17:33:43.158Z,96864.47
2019-05-17T17:36:12.623Z,96863.69
2019-05-17T17:38:42.000Z,96863.70
2019-05-17T17:41:11.389Z,96866.23
2019-05-17T17:43:40.760Z,96872.23
2019-05-17T17:46:10.155Z,96867.04
2019-05-17T17:48:39.542Z,96872.79
2019-05-17T17:51:09.124Z,96867.63
2019-05-17T17:53:38.507Z,96862.96
2019-05-17T17:56:07.911Z,96864.75
2019-05-17T17:58:37.380Z,96863.66
2019-05-17T18:01:06.872Z,96869.58
2019-05-17T18:03:36.234Z,96865.20
2019-05-17T18:06:05.765Z,96857.66
2019-05-17T18:08:35.151Z,96859.03
2019-05-17T18:11:04.542Z,96866.95
2019-05-17T18:13:33.951Z,96862.95
2019-05-17T18:16:03.330Z,96866.54
2019-05-17T18:18:32.719Z,96866.70
2019-05-17T18:21:02.218Z,96866.36
2019-05-17T18:23:31.667Z,96868.37
2019-05-17T18:26:01.065Z,96877.19
2019-05-17T18:28:30.516Z,96877.58
2019-05-17T18:30:59.977Z,96875.36
2019-05-17T18:33:29.486Z,96881.28
2019-05-17T18:35:58.857Z,96892.23
2019-05-17T18:38:30.850Z,96886.70
2019-05-17T18:41:00.263Z,96890.28
2019-05-17T18:43:29.646Z,96891.95
2019-05-17T18:45:59.064Z,96897.27
2019-05-17T18:48:28.434Z,96896.35
2019-05-17T18:50:57.833Z,96894.03
2019-05-17T18:53:27.564Z,96905.16
2019-05-17T18:55:56.993Z,96903.35
2019-05-17T18:58:26.360Z,96907.41
2019-05-17T19:00:55.873Z,96911.61
2019-05-17T19:03:25.259Z,96911.07
2019-05-17T19:05:54.757Z,96909.71
2019-05-17T19:08:24.224Z,96914.23
2019-05-17T19:10:53.744Z,96915.47
2019-05-17T19:13:23.115Z,96919.75
2019-05-17T19:15:52.479Z,96925.63
2019-05-17T19:18:21.866Z,96924.13
2019-05-17T19:20:51.279Z,96928.21
2019-05-17T19:23:20.639Z,96929.64
2019-05-17T19:25:50.250Z,96929.29
2019-05-17T19:28:19.901Z,96931.44
2019-05-17T19:30:50.289Z,96935.31
2019-05-17T19:33:19.796Z,96939.60
2019-05-17T19:35:49.177Z,96940.45
2019-05-17T19:38:18.566Z,96941.65
2019-05-17T19:40:47.975Z,96946.88
2019-05-17T19:43:17.387Z,96951.73
2019-05-17T19:45:46.756Z,96955.44
2019-05-17T19:48:19.674Z,96954.77
2019-05-17T19:50:47.949Z,96950.16
2019-05-17T19:53:17.340Z,96953.08
2019-05-17T19:55:46.854Z,96951.08
2019-05-17T19:58:16.250Z,96955.73
2019-05-17T20:00:45.902Z,96957.55
2019-05-17T20:03:15.282Z,96954.74
2019-05-17T20:05:44.688Z,96958.43
2019-05-17T20:08:14.111Z,96962.19
2019-05-17T20:10:43.523Z,96960.55
2019-05-17T20:13:13.803Z,96958.66
2019-05-17T20:15:43.223Z,96962.41
2019-05-17T20:18:15.140Z,96960.62
2019-05-17T20:20:44.806Z,96959.52
2019-05-17T20:23:14.235Z,96962.72
2019-05-17T20:25:44.412Z,96958.90
2019-05-17T20:28:16.412Z,96961.75
2019-05-17T20:30:45.797Z,96963.39
2019-05-17T20:33:15.232Z,96966.67
2019-05-17T20:35:44.607Z,96967.52
2019-05-17T20:38:14.027Z,96966.76
2019-05-17T20:40:43.542Z,96962.36
2019-05-17T20:43:13.099Z,96966.59
2019-05-17T20:45:42.682Z,96962.73
2019-05-17T20:48:12.073Z,96967.52
2019-05-17T20:50:41.586Z,96953.97
2019-05-17T20:53:18.734Z,96957.03
2019-05-17T20:55:42.682Z,96958.28
2019-05-17T20:58:12.169Z,96953.64
2019-05-17T21:00:41.757Z,96951.63
2019-05-17T21:03:13.829Z,96952.77
2019-05-17T21:05:42.394Z,96950.78
2019-05-17T21:08:11.780Z,96951.31
2019-05-17T21:10:41.200Z,96951.45
2019-05-17T21:13:10.589Z,96946.80
2019-05-17T21:15:47.358Z,96949.30
2019-05-17T21:18:11.083Z,96958.48
2019-05-17T21:20:40.517Z,96955.88
2019-05-17T21:23:09.922Z,96952.08
2019-05-17T21:25:39.320Z,96954.35
2019-05-17T21:28:08.720Z,96945.54
2019-05-17T21:30:38.251Z,96952.31
2019-05-17T21:33:07.624Z,96948.50
2019-05-17T21:35:37.005Z,96953.02
2019-05-17T21:38:06.414Z,96956.29
2019-05-17T21:40:35.797Z,96962.50
2019-05-17T21:43:05.240Z,96961.41
2019-05-17T21:45:34.670Z,96962.42
2019-05-17T21:48:04.070Z,96961.63
2019-05-17T21:50:33.453Z,96957.56
2019-05-17T21:53:02.867Z,96962.55
2019-05-17T21:55:32.332Z,96960.97
2019-05-17T21:58:01.865Z,96966.51
2019-05-17T22:01:06.490Z,96959.30
2019-05-17T22:03:36.036Z,96960.30
2019-05-17T22:06:05.426Z,96958.95
2019-05-17T22:08:34.907Z,96959.86
2019-05-17T22:11:04.312Z,96959.28
2019-05-17T22:13:33.693Z,96955.57
2019-05-17T22:16:18.237Z,96961.20
2019-05-17T22:18:34.250Z,96960.97
2019-05-17T22:21:03.678Z,96963.46
2019-05-17T22:23:33.097Z,96966.27
2019-05-17T22:26:02.488Z,96966.16
2019-05-17T22:28:31.879Z,96968.20
2019-05-17T22:31:01.270Z,96963.67
2019-05-17T22:33:30.852Z,96961.66
2019-05-17T22:36:00.254Z,96962.09
2019-05-17T22:38:29.687Z,96958.02
2019-05-17T22:40:59.108Z,96961.81
2019-05-17T22:43:28.592Z,96963.45
2019-05-17T22:45:58.006Z,96958.66
2019-05-17T22:48:27.385Z,96960.92
2019-05-17T22:50:56.766Z,96960.78
2019-05-17T22:53:26.232Z,96957.08
2019-05-17T22:55:55.620Z,96961.47
2019-05-17T22:58:25.029Z,96962.72
2019-05-17T23:00:54.420Z,96966.30
2019-05-17T23:03:23.846Z,96958.30
2019-05-17T23:05:53.236Z,96958.19
2019-05-17T23:08:22.623Z,96947.23
2019-05-17T23:10:52.030Z,96955.02
2019-05-17T23:13:21.405Z,96946.22
2019-05-17T23:16:04.745Z,96949.84
2019-05-17T23:18:34.843Z,96946.08
2019-05-17T23:21:04.602Z,96946.39
2019-05-17T23:23:33.989Z,96943.88
2019-05-17T23:26:03.403Z,96942.53
2019-05-17T23:28:32.812Z,96947.23
2019-05-17T23:31:02.220Z,96943.75
2019-05-17T23:33:31.655Z,96943.58
2019-05-17T23:36:01.039Z,96946.50
2019-05-17T23:38:30.442Z,96941.06
2019-05-17T23:40:59.840Z,96948.72
2019-05-17T23:43:29.367Z,96944.63
2019-05-17T23:45:58.748Z,96944.63
2019-05-17T23:48:28.153Z,96943.51
2019-05-17T23:50:58.042Z,96945.45
2019-05-17T23:53:27.449Z,96945.37
2019-05-17T23:55:56.834Z,96944.77
2019-05-17T23:58:26.269Z,96944.33
